sensor_id;sensor_type;location;lat;lon;timestamp;P1;durP1;ratioP1;P2;durP2;ratioP2
61477;SDS011;47345;52.334;10.392;2022-09-13T00:00:48;2.80;;;2.60;;
61477;SDS011;47345;52.334;10.392;2022-09-13T00:03:19;5.10;;;2.80;;
61477;SDS011;47345;52.334;10.392;2022-09-13T00:05:50;3.50;;;2.50;;
61477;SDS011;47345;52.334;10.392;2022-09-13T00:08:20;2.80;;;2.40;;
61477;SDS011;47345;52.334;10.392;2022-09-13T00:10:51;2.80;;;2.50;;
61477;SDS011;47345;52.334;10.392;2022-09-13T00:13:21;4.10;;;2.70;;
61477;SDS011;47345;52.334;10.392;2022-09-13T00:15:51;2.60;;;2.20;;
61477;SDS011;47345;52.334;10.392;2022-09-13T00:18:22;2.70;;;2.40;;
61477;SDS011;47345;52.334;10.392;2022-09-13T00:21:01;3.00;;;2.70;;
61477;SDS011;47345;52.334;10.392;2022-09-13T00:23:33;3.20;;;2.60;;
61477;SDS011;47345;52.334;10.392;2022-09-13T00:26:04;3.00;;;2.40;;
61477;SDS011;47345;52.334;10.392;2022-09-13T00:28:38;2.50;;;2.30;;
61477;SDS011;47345;52.334;10.392;2022-09-13T00:31:08;2.60;;;2.40;;
61477;SDS011;47345;52.334;10.392;2022-09-13T00:33:39;2.50;;;2.20;;
61477;SDS011;47345;52.334;10.392;2022-09-13T00:36:10;3.90;;;2.40;;
61477;SDS011;47345;52.334;10.392;2022-09-13T00:38:42;2.50;;;2.20;;
61477;SDS011;47345;52.334;10.392;2022-09-13T00:41:14;2.90;;;2.60;;
61477;SDS011;47345;52.334;10.392;2022-09-13T00:43:47;2.40;;;2.20;;
61477;SDS011;47345;52.334;10.392;2022-09-13T00:46:24;3.40;;;2.60;;
61477;SDS011;47345;52.334;10.392;2022-09-13T00:49:00;2.70;;;2.20;;
61477;SDS011;47345;52.334;10.392;2022-09-13T00:51:38;2.30;;;2.10;;
61477;SDS011;47345;52.334;10.392;2022-09-13T00:54:10;3.80;;;2.90;;
61477;SDS011;47345;52.334;10.392;2022-09-13T00:56:42;2.30;;;2.10;;
61477;SDS011;47345;52.334;10.392;2022-09-13T00:59:16;3.40;;;2.40;;
61477;SDS011;47345;52.334;10.392;2022-09-13T01:01:54;3.70;;;2.40;;
61477;SDS011;47345;52.334;10.392;2022-09-13T01:04:26;3.50;;;2.60;;
61477;SDS011;47345;52.334;10.392;2022-09-13T01:07:01;3.20;;;2.40;;
61477;SDS011;47345;52.334;10.392;2022-09-13T01:09:33;3.30;;;2.70;;
61477;SDS011;47345;52.334;10.392;2022-09-13T01:12:07;3.20;;;2.50;;
61477;SDS011;47345;52.334;10.392;2022-09-13T01:14:45;2.70;;;2.30;;
61477;SDS011;47345;52.334;10.392;2022-09-13T01:17:17;2.40;;;2.20;;
61477;SDS011;47345;52.334;10.392;2022-09-13T01:19:48;2.70;;;2.50;;
61477;SDS011;47345;52.334;10.392;2022-09-13T01:22:29;2.90;;;2.20;;
61477;SDS011;47345;52.334;10.392;2022-09-13T01:28:28;2.60;;;2.00;;
61477;SDS011;47345;52.334;10.392;2022-09-13T01:31:24;2.80;;;2.40;;
61477;SDS011;47345;52.334;10.392;2022-09-13T01:34:07;2.50;;;2.30;;
61477;SDS011;47345;52.334;10.392;2022-09-13T01:36:46;2.50;;;2.20;;
61477;SDS011;47345;52.334;10.392;2022-09-13T01:39:33;2.70;;;2.50;;
61477;SDS011;47345;52.334;10.392;2022-09-13T01:42:18;2.70;;;2.20;;
61477;SDS011;47345;52.334;10.392;2022-09-13T01:45:01;3.00;;;2.50;;
61477;SDS011;47345;52.334;10.392;2022-09-13T01:47:43;3.00;;;2.40;;
61477;SDS011;47345;52.334;10.392;2022-09-13T01:50:23;2.60;;;2.40;;
61477;SDS011;47345;52.334;10.392;2022-09-13T01:53:03;2.70;;;2.30;;
61477;SDS011;47345;52.334;10.392;2022-09-13T01:55:38;2.90;;;2.30;;
61477;SDS011;47345;52.334;10.392;2022-09-13T01:58:18;2.90;;;2.30;;
61477;SDS011;47345;52.334;10.392;2022-09-13T02:00:53;2.50;;;2.30;;
61477;SDS011;47345;52.334;10.392;2022-09-13T02:03:32;4.00;;;2.70;;
61477;SDS011;47345;52.334;10.392;2022-09-13T02:06:09;2.70;;;2.40;;
61477;SDS011;47345;52.334;10.392;2022-09-13T02:08:42;3.80;;;2.70;;
61477;SDS011;47345;52.334;10.392;2022-09-13T02:11:16;4.60;;;2.80;;
61477;SDS011;47345;52.334;10.392;2022-09-13T02:13:49;3.30;;;2.40;;
61477;SDS011;47345;52.334;10.392;2022-09-13T02:16:25;4.30;;;2.70;;
61477;SDS011;47345;52.334;10.392;2022-09-13T02:19:01;3.50;;;2.70;;
61477;SDS011;47345;52.334;10.392;2022-09-13T02:21:36;4.60;;;2.50;;
61477;SDS011;47345;52.334;10.392;2022-09-13T02:24:12;3.30;;;2.80;;
61477;SDS011;47345;52.334;10.392;2022-09-13T02:26:46;3.00;;;2.60;;
61477;SDS011;47345;52.334;10.392;2022-09-13T02:29:21;5.00;;;2.80;;
61477;SDS011;47345;52.334;10.392;2022-09-13T02:31:56;5.40;;;2.80;;
61477;SDS011;47345;52.334;10.392;2022-09-13T02:34:32;4.40;;;2.70;;
61477;SDS011;47345;52.334;10.392;2022-09-13T02:37:07;3.00;;;2.60;;
61477;SDS011;47345;52.334;10.392;2022-09-13T02:39:40;4.80;;;2.90;;
61477;SDS011;47345;52.334;10.392;2022-09-13T02:42:16;5.10;;;3.00;;
61477;SDS011;47345;52.334;10.392;2022-09-13T02:44:50;5.10;;;3.00;;
61477;SDS011;47345;52.334;10.392;2022-09-13T02:47:27;3.30;;;2.50;;
61477;SDS011;47345;52.334;10.392;2022-09-13T02:50:09;3.80;;;2.60;;
61477;SDS011;47345;52.334;10.392;2022-09-13T02:52:49;3.90;;;2.40;;
61477;SDS011;47345;52.334;10.392;2022-09-13T02:55:29;3.10;;;2.60;;
61477;SDS011;47345;52.334;10.392;2022-09-13T02:58:11;4.10;;;2.60;;
61477;SDS011;47345;52.334;10.392;2022-09-13T03:00:52;9.20;;;2.60;;
61477;SDS011;47345;52.334;10.392;2022-09-13T03:03:23;2.60;;;2.40;;
61477;SDS011;47345;52.334;10.392;2022-09-13T03:05:54;6.80;;;2.60;;
61477;SDS011;47345;52.334;10.392;2022-09-13T03:08:24;3.80;;;2.70;;
61477;SDS011;47345;52.334;10.392;2022-09-13T03:10:58;3.20;;;2.60;;
61477;SDS011;47345;52.334;10.392;2022-09-13T03:13:42;2.50;;;2.30;;
61477;SDS011;47345;52.334;10.392;2022-09-13T03:16:32;3.20;;;2.50;;
61477;SDS011;47345;52.334;10.392;2022-09-13T03:19:22;2.70;;;2.50;;
61477;SDS011;47345;52.334;10.392;2022-09-13T03:22:09;2.90;;;2.60;;
61477;SDS011;47345;52.334;10.392;2022-09-13T03:24:54;4.40;;;2.60;;
61477;SDS011;47345;52.334;10.392;2022-09-13T03:27:32;3.40;;;2.30;;
61477;SDS011;47345;52.334;10.392;2022-09-13T03:30:09;3.20;;;2.70;;
61477;SDS011;47345;52.334;10.392;2022-09-13T03:32:44;3.60;;;2.60;;
61477;SDS011;47345;52.334;10.392;2022-09-13T03:35:21;3.80;;;2.80;;
61477;SDS011;47345;52.334;10.392;2022-09-13T03:37:58;3.90;;;2.70;;
61477;SDS011;47345;52.334;10.392;2022-09-13T03:40:37;3.60;;;3.00;;
61477;SDS011;47345;52.334;10.392;2022-09-13T03:43:11;3.60;;;2.90;;
61477;SDS011;47345;52.334;10.392;2022-09-13T03:45:47;4.20;;;3.20;;
61477;SDS011;47345;52.334;10.392;2022-09-13T03:48:21;4.60;;;3.30;;
61477;SDS011;47345;52.334;10.392;2022-09-13T03:50:52;4.50;;;3.40;;
61477;SDS011;47345;52.334;10.392;2022-09-13T03:53:24;5.30;;;3.50;;
61477;SDS011;47345;52.334;10.392;2022-09-13T03:55:56;5.10;;;3.30;;
61477;SDS011;47345;52.334;10.392;2022-09-13T03:58:26;4.70;;;3.00;;
61477;SDS011;47345;52.334;10.392;2022-09-13T04:00:57;5.10;;;3.40;;
61477;SDS011;47345;52.334;10.392;2022-09-13T04:03:28;5.90;;;3.70;;
61477;SDS011;47345;52.334;10.392;2022-09-13T04:05:58;6.00;;;3.90;;
61477;SDS011;47345;52.334;10.392;2022-09-13T04:08:30;4.00;;;3.10;;
61477;SDS011;47345;52.334;10.392;2022-09-13T04:11:02;3.40;;;3.00;;
61477;SDS011;47345;52.334;10.392;2022-09-13T04:13:37;6.90;;;3.90;;
61477;SDS011;47345;52.334;10.392;2022-09-13T04:16:11;6.70;;;4.20;;
61477;SDS011;47345;52.334;10.392;2022-09-13T04:18:41;6.90;;;3.90;;
61477;SDS011;47345;52.334;10.392;2022-09-13T04:21:12;7.50;;;4.00;;
61477;SDS011;47345;52.334;10.392;2022-09-13T04:23:43;5.70;;;3.60;;
61477;SDS011;47345;52.334;10.392;2022-09-13T04:26:17;4.70;;;3.30;;
61477;SDS011;47345;52.334;10.392;2022-09-13T04:28:47;5.40;;;3.80;;
61477;SDS011;47345;52.334;10.392;2022-09-13T04:31:19;7.00;;;3.50;;
61477;SDS011;47345;52.334;10.392;2022-09-13T04:33:50;4.40;;;3.20;;
61477;SDS011;47345;52.334;10.392;2022-09-13T04:36:21;4.00;;;3.40;;
61477;SDS011;47345;52.334;10.392;2022-09-13T04:38:52;5.20;;;3.40;;
61477;SDS011;47345;52.334;10.392;2022-09-13T04:41:22;5.10;;;3.50;;
61477;SDS011;47345;52.334;10.392;2022-09-13T04:43:52;4.40;;;3.20;;
61477;SDS011;47345;52.334;10.392;2022-09-13T04:46:23;5.50;;;3.60;;
61477;SDS011;47345;52.334;10.392;2022-09-13T04:48:53;6.30;;;3.40;;
61477;SDS011;47345;52.334;10.392;2022-09-13T04:51:23;4.20;;;3.20;;
61477;SDS011;47345;52.334;10.392;2022-09-13T04:53:54;4.40;;;3.60;;
61477;SDS011;47345;52.334;10.392;2022-09-13T04:56:25;9.00;;;5.60;;
61477;SDS011;47345;52.334;10.392;2022-09-13T04:58:55;6.20;;;3.90;;
61477;SDS011;47345;52.334;10.392;2022-09-13T05:01:26;4.30;;;3.30;;
61477;SDS011;47345;52.334;10.392;2022-09-13T05:03:57;6.40;;;4.50;;
61477;SDS011;47345;52.334;10.392;2022-09-13T05:06:27;8.80;;;4.40;;
61477;SDS011;47345;52.334;10.392;2022-09-13T05:08:58;5.60;;;3.60;;
61477;SDS011;47345;52.334;10.392;2022-09-13T05:11:28;4.30;;;3.30;;
61477;SDS011;47345;52.334;10.392;2022-09-13T05:13:59;4.50;;;3.40;;
61477;SDS011;47345;52.334;10.392;2022-09-13T05:16:31;6.20;;;3.30;;
61477;SDS011;47345;52.334;10.392;2022-09-13T05:19:01;4.20;;;3.10;;
61477;SDS011;47345;52.334;10.392;2022-09-13T05:21:32;4.80;;;3.80;;
61477;SDS011;47345;52.334;10.392;2022-09-13T05:24:02;6.80;;;3.90;;
61477;SDS011;47345;52.334;10.392;2022-09-13T05:26:32;4.70;;;3.40;;
61477;SDS011;47345;52.334;10.392;2022-09-13T05:29:03;5.00;;;3.20;;
61477;SDS011;47345;52.334;10.392;2022-09-13T05:31:34;4.80;;;3.60;;
61477;SDS011;47345;52.334;10.392;2022-09-13T05:34:06;4.80;;;3.20;;
61477;SDS011;47345;52.334;10.392;2022-09-13T05:36:37;4.60;;;3.60;;
61477;SDS011;47345;52.334;10.392;2022-09-13T05:39:10;4.50;;;3.40;;
61477;SDS011;47345;52.334;10.392;2022-09-13T05:42:04;5.60;;;3.60;;
61477;SDS011;47345;52.334;10.392;2022-09-13T05:44:35;4.60;;;3.70;;
61477;SDS011;47345;52.334;10.392;2022-09-13T05:47:05;5.90;;;3.90;;
61477;SDS011;47345;52.334;10.392;2022-09-13T05:49:35;4.70;;;3.70;;
61477;SDS011;47345;52.334;10.392;2022-09-13T05:52:26;5.10;;;3.60;;
61477;SDS011;47345;52.334;10.392;2022-09-13T05:54:56;6.50;;;4.00;;
61477;SDS011;47345;52.334;10.392;2022-09-13T05:57:26;4.90;;;3.70;;
61477;SDS011;47345;52.334;10.392;2022-09-13T05:59:56;5.10;;;3.70;;
61477;SDS011;47345;52.334;10.392;2022-09-13T06:02:26;6.20;;;3.60;;
61477;SDS011;47345;52.334;10.392;2022-09-13T06:04:58;5.10;;;3.40;;
61477;SDS011;47345;52.334;10.392;2022-09-13T06:07:28;5.40;;;3.70;;
61477;SDS011;47345;52.334;10.392;2022-09-13T06:09:59;5.30;;;3.90;;
61477;SDS011;47345;52.334;10.392;2022-09-13T06:12:29;5.10;;;3.60;;
61477;SDS011;47345;52.334;10.392;2022-09-13T06:14:59;6.80;;;3.70;;
61477;SDS011;47345;52.334;10.392;2022-09-13T06:17:30;5.30;;;3.60;;
61477;SDS011;47345;52.334;10.392;2022-09-13T06:20:01;5.50;;;3.80;;
61477;SDS011;47345;52.334;10.392;2022-09-13T06:22:32;4.40;;;3.80;;
61477;SDS011;47345;52.334;10.392;2022-09-13T06:25:02;5.90;;;3.40;;
61477;SDS011;47345;52.334;10.392;2022-09-13T06:27:34;6.20;;;3.70;;
61477;SDS011;47345;52.334;10.392;2022-09-13T06:30:05;6.20;;;3.60;;
61477;SDS011;47345;52.334;10.392;2022-09-13T06:32:39;5.40;;;3.70;;
61477;SDS011;47345;52.334;10.392;2022-09-13T06:35:10;4.70;;;3.40;;
61477;SDS011;47345;52.334;10.392;2022-09-13T06:37:40;5.60;;;3.80;;
61477;SDS011;47345;52.334;10.392;2022-09-13T06:40:11;6.70;;;3.60;;
61477;SDS011;47345;52.334;10.392;2022-09-13T06:42:41;5.30;;;3.60;;
61477;SDS011;47345;52.334;10.392;2022-09-13T06:45:12;5.40;;;3.70;;
61477;SDS011;47345;52.334;10.392;2022-09-13T06:47:42;5.40;;;3.60;;
61477;SDS011;47345;52.334;10.392;2022-09-13T06:50:12;5.60;;;3.70;;
61477;SDS011;47345;52.334;10.392;2022-09-13T06:52:42;6.00;;;3.80;;
61477;SDS011;47345;52.334;10.392;2022-09-13T06:55:13;5.40;;;3.90;;
61477;SDS011;47345;52.334;10.392;2022-09-13T06:57:44;4.60;;;3.40;;
61477;SDS011;47345;52.334;10.392;2022-09-13T07:00:16;4.80;;;3.80;;
61477;SDS011;47345;52.334;10.392;2022-09-13T07:02:50;7.00;;;4.00;;
61477;SDS011;47345;52.334;10.392;2022-09-13T07:05:21;4.60;;;3.60;;
61477;SDS011;47345;52.334;10.392;2022-09-13T07:07:52;6.50;;;4.10;;
61477;SDS011;47345;52.334;10.392;2022-09-13T07:10:22;5.30;;;3.90;;
61477;SDS011;47345;52.334;10.392;2022-09-13T07:12:52;6.10;;;3.80;;
61477;SDS011;47345;52.334;10.392;2022-09-13T07:15:23;4.60;;;3.50;;
61477;SDS011;47345;52.334;10.392;2022-09-13T07:17:53;5.70;;;3.90;;
61477;SDS011;47345;52.334;10.392;2022-09-13T07:20:23;4.80;;;3.50;;
61477;SDS011;47345;52.334;10.392;2022-09-13T07:22:53;5.30;;;3.60;;
61477;SDS011;47345;52.334;10.392;2022-09-13T07:25:23;4.80;;;3.60;;
61477;SDS011;47345;52.334;10.392;2022-09-13T07:27:53;6.70;;;4.00;;
61477;SDS011;47345;52.334;10.392;2022-09-13T07:30:23;4.70;;;3.60;;
61477;SDS011;47345;52.334;10.392;2022-09-13T07:32:54;4.10;;;3.30;;
61477;SDS011;47345;52.334;10.392;2022-09-13T07:35:24;6.50;;;3.70;;
61477;SDS011;47345;52.334;10.392;2022-09-13T07:37:54;5.20;;;3.90;;
61477;SDS011;47345;52.334;10.392;2022-09-13T07:40:24;4.90;;;3.60;;
61477;SDS011;47345;52.334;10.392;2022-09-13T07:42:54;5.80;;;3.70;;
61477;SDS011;47345;52.334;10.392;2022-09-13T07:45:25;5.50;;;3.40;;
61477;SDS011;47345;52.334;10.392;2022-09-13T07:47:55;5.30;;;3.00;;
61477;SDS011;47345;52.334;10.392;2022-09-13T07:50:25;5.60;;;3.50;;
61477;SDS011;47345;52.334;10.392;2022-09-13T07:52:55;3.50;;;3.10;;
61477;SDS011;47345;52.334;10.392;2022-09-13T07:55:25;4.80;;;3.40;;
61477;SDS011;47345;52.334;10.392;2022-09-13T07:57:56;4.70;;;3.30;;
61477;SDS011;47345;52.334;10.392;2022-09-13T08:00:27;7.40;;;3.70;;
61477;SDS011;47345;52.334;10.392;2022-09-13T08:02:58;7.50;;;3.30;;
61477;SDS011;47345;52.334;10.392;2022-09-13T08:05:28;4.70;;;3.50;;
61477;SDS011;47345;52.334;10.392;2022-09-13T08:07:59;3.90;;;3.00;;
61477;SDS011;47345;52.334;10.392;2022-09-13T08:10:30;5.50;;;3.60;;
61477;SDS011;47345;52.334;10.392;2022-09-13T08:13:00;4.30;;;3.30;;
61477;SDS011;47345;52.334;10.392;2022-09-13T08:15:30;4.90;;;3.20;;
61477;SDS011;47345;52.334;10.392;2022-09-13T08:18:01;4.70;;;3.60;;
61477;SDS011;47345;52.334;10.392;2022-09-13T08:20:35;5.40;;;3.10;;
61477;SDS011;47345;52.334;10.392;2022-09-13T08:23:06;3.80;;;2.90;;
61477;SDS011;47345;52.334;10.392;2022-09-13T08:25:39;5.00;;;3.40;;
61477;SDS011;47345;52.334;10.392;2022-09-13T08:28:09;3.60;;;2.90;;
61477;SDS011;47345;52.334;10.392;2022-09-13T08:30:44;4.40;;;3.50;;
61477;SDS011;47345;52.334;10.392;2022-09-13T08:33:14;3.40;;;2.80;;
61477;SDS011;47345;52.334;10.392;2022-09-13T08:35:50;3.50;;;2.90;;
61477;SDS011;47345;52.334;10.392;2022-09-13T08:38:22;5.10;;;3.30;;
61477;SDS011;47345;52.334;10.392;2022-09-13T08:40:53;4.90;;;3.60;;
61477;SDS011;47345;52.334;10.392;2022-09-13T08:43:29;3.80;;;3.00;;
61477;SDS011;47345;52.334;10.392;2022-09-13T08:46:19;5.80;;;3.70;;
61477;SDS011;47345;52.334;10.392;2022-09-13T08:48:55;4.70;;;3.50;;
61477;SDS011;47345;52.334;10.392;2022-09-13T08:51:30;4.60;;;3.20;;
61477;SDS011;47345;52.334;10.392;2022-09-13T08:54:07;4.70;;;2.80;;
61477;SDS011;47345;52.334;10.392;2022-09-13T08:56:40;3.80;;;3.00;;
61477;SDS011;47345;52.334;10.392;2022-09-13T08:59:20;4.90;;;3.50;;
61477;SDS011;47345;52.334;10.392;2022-09-13T09:02:03;4.90;;;3.40;;
61477;SDS011;47345;52.334;10.392;2022-09-13T09:04:51;4.40;;;2.90;;
61477;SDS011;47345;52.334;10.392;2022-09-13T09:07:27;9.50;;;4.00;;
61477;SDS011;47345;52.334;10.392;2022-09-13T09:10:00;5.60;;;3.50;;
61477;SDS011;47345;52.334;10.392;2022-09-13T09:12:37;6.50;;;3.90;;
61477;SDS011;47345;52.334;10.392;2022-09-13T09:15:13;3.70;;;3.00;;
61477;SDS011;47345;52.334;10.392;2022-09-13T09:17:48;4.80;;;3.50;;
61477;SDS011;47345;52.334;10.392;2022-09-13T09:20:27;5.10;;;3.50;;
61477;SDS011;47345;52.334;10.392;2022-09-13T09:23:01;5.60;;;3.60;;
61477;SDS011;47345;52.334;10.392;2022-09-13T09:25:33;6.00;;;4.20;;
61477;SDS011;47345;52.334;10.392;2022-09-13T09:28:08;5.20;;;3.60;;
61477;SDS011;47345;52.334;10.392;2022-09-13T09:30:42;5.60;;;3.80;;
61477;SDS011;47345;52.334;10.392;2022-09-13T09:33:24;5.10;;;3.70;;
61477;SDS011;47345;52.334;10.392;2022-09-13T09:36:05;4.30;;;3.20;;
61477;SDS011;47345;52.334;10.392;2022-09-13T09:38:43;6.20;;;4.10;;
61477;SDS011;47345;52.334;10.392;2022-09-13T09:41:14;7.00;;;4.40;;
61477;SDS011;47345;52.334;10.392;2022-09-13T09:43:55;8.20;;;3.70;;
61477;SDS011;47345;52.334;10.392;2022-09-13T09:46:35;5.20;;;3.80;;
61477;SDS011;47345;52.334;10.392;2022-09-13T09:49:11;4.80;;;3.60;;
61477;SDS011;47345;52.334;10.392;2022-09-13T09:52:03;5.20;;;3.50;;
61477;SDS011;47345;52.334;10.392;2022-09-13T09:54:37;6.70;;;4.20;;
61477;SDS011;47345;52.334;10.392;2022-09-13T09:57:08;8.40;;;4.00;;
61477;SDS011;47345;52.334;10.392;2022-09-13T09:59:38;5.90;;;4.10;;
61477;SDS011;47345;52.334;10.392;2022-09-13T10:02:13;7.40;;;4.30;;
61477;SDS011;47345;52.334;10.392;2022-09-13T10:04:54;5.50;;;4.10;;
61477;SDS011;47345;52.334;10.392;2022-09-13T10:07:29;6.80;;;4.00;;
61477;SDS011;47345;52.334;10.392;2022-09-13T10:10:01;7.00;;;4.40;;
61477;SDS011;47345;52.334;10.392;2022-09-13T10:12:36;7.00;;;5.00;;
61477;SDS011;47345;52.334;10.392;2022-09-13T10:15:13;5.70;;;4.30;;
61477;SDS011;47345;52.334;10.392;2022-09-13T10:20:58;7.40;;;4.30;;
61477;SDS011;47345;52.334;10.392;2022-09-13T10:23:30;7.00;;;4.40;;
61477;SDS011;47345;52.334;10.392;2022-09-13T10:26:03;6.20;;;4.30;;
61477;SDS011;47345;52.334;10.392;2022-09-13T10:28:40;7.20;;;4.30;;
61477;SDS011;47345;52.334;10.392;2022-09-13T10:31:13;6.30;;;4.30;;
61477;SDS011;47345;52.334;10.392;2022-09-13T10:33:50;7.10;;;4.30;;
61477;SDS011;47345;52.334;10.392;2022-09-13T10:36:25;6.80;;;4.20;;
61477;SDS011;47345;52.334;10.392;2022-09-13T10:39:20;8.60;;;4.70;;
61477;SDS011;47345;52.334;10.392;2022-09-13T10:41:52;7.30;;;4.40;;
61477;SDS011;47345;52.334;10.392;2022-09-13T10:44:26;5.00;;;3.90;;
61477;SDS011;47345;52.334;10.392;2022-09-13T10:47:00;5.90;;;4.20;;
61477;SDS011;47345;52.334;10.392;2022-09-13T10:49:35;6.80;;;3.80;;
61477;SDS011;47345;52.334;10.392;2022-09-13T10:54:54;8.00;;;4.80;;
61477;SDS011;47345;52.334;10.392;2022-09-13T10:57:45;7.50;;;4.30;;
61477;SDS011;47345;52.334;10.392;2022-09-13T11:00:17;6.90;;;4.30;;
61477;SDS011;47345;52.334;10.392;2022-09-13T11:02:53;6.20;;;4.60;;
61477;SDS011;47345;52.334;10.392;2022-09-13T11:05:40;6.70;;;3.90;;
61477;SDS011;47345;52.334;10.392;2022-09-13T11:08:30;6.90;;;4.10;;
61477;SDS011;47345;52.334;10.392;2022-09-13T11:11:14;5.20;;;4.30;;
61477;SDS011;47345;52.334;10.392;2022-09-13T11:13:52;10.10;;;5.00;;
61477;SDS011;47345;52.334;10.392;2022-09-13T11:16:36;5.80;;;4.20;;
61477;SDS011;47345;52.334;10.392;2022-09-13T11:19:24;6.80;;;4.20;;
61477;SDS011;47345;52.334;10.392;2022-09-13T11:22:18;8.00;;;4.20;;
61477;SDS011;47345;52.334;10.392;2022-09-13T11:24:57;7.20;;;4.40;;
61477;SDS011;47345;52.334;10.392;2022-09-13T11:27:39;7.50;;;4.90;;
61477;SDS011;47345;52.334;10.392;2022-09-13T11:30:17;8.40;;;5.50;;
61477;SDS011;47345;52.334;10.392;2022-09-13T11:32:59;8.80;;;4.50;;
61477;SDS011;47345;52.334;10.392;2022-09-13T11:35:45;5.60;;;3.90;;
61477;SDS011;47345;52.334;10.392;2022-09-13T11:38:30;4.90;;;4.20;;
61477;SDS011;47345;52.334;10.392;2022-09-13T11:41:10;6.80;;;4.10;;
61477;SDS011;47345;52.334;10.392;2022-09-13T11:43:56;6.90;;;4.50;;
61477;SDS011;47345;52.334;10.392;2022-09-13T11:46:42;10.50;;;5.90;;
61477;SDS011;47345;52.334;10.392;2022-09-13T11:49:29;10.30;;;5.60;;
61477;SDS011;47345;52.334;10.392;2022-09-13T11:52:08;11.30;;;6.40;;
61477;SDS011;47345;52.334;10.392;2022-09-13T11:54:54;11.90;;;6.80;;
61477;SDS011;47345;52.334;10.392;2022-09-13T11:57:32;17.90;;;6.10;;
61477;SDS011;47345;52.334;10.392;2022-09-13T12:00:12;12.50;;;5.60;;
61477;SDS011;47345;52.334;10.392;2022-09-13T12:02:48;9.80;;;5.70;;
61477;SDS011;47345;52.334;10.392;2022-09-13T12:05:26;12.00;;;7.30;;
61477;SDS011;47345;52.334;10.392;2022-09-13T12:08:01;11.70;;;7.30;;
61477;SDS011;47345;52.334;10.392;2022-09-13T12:10:40;11.40;;;6.90;;
61477;SDS011;47345;52.334;10.392;2022-09-13T12:13:17;12.90;;;7.60;;
61477;SDS011;47345;52.334;10.392;2022-09-13T12:15:51;12.20;;;6.80;;
61477;SDS011;47345;52.334;10.392;2022-09-13T12:18:24;10.20;;;6.80;;
61477;SDS011;47345;52.334;10.392;2022-09-13T12:20:58;12.20;;;7.20;;
61477;SDS011;47345;52.334;10.392;2022-09-13T12:23:34;14.60;;;7.50;;
61477;SDS011;47345;52.334;10.392;2022-09-13T12:26:10;14.00;;;7.50;;
61477;SDS011;47345;52.334;10.392;2022-09-13T12:28:47;8.90;;;5.70;;
61477;SDS011;47345;52.334;10.392;2022-09-13T12:31:23;10.70;;;5.20;;
61477;SDS011;47345;52.334;10.392;2022-09-13T12:33:55;10.20;;;5.90;;
61477;SDS011;47345;52.334;10.392;2022-09-13T12:39:28;13.20;;;7.10;;
61477;SDS011;47345;52.334;10.392;2022-09-13T12:42:32;10.60;;;6.50;;
61477;SDS011;47345;52.334;10.392;2022-09-13T12:45:16;10.70;;;7.00;;
61477;SDS011;47345;52.334;10.392;2022-09-13T12:48:29;10.70;;;6.10;;
61477;SDS011;47345;52.334;10.392;2022-09-13T12:51:23;8.20;;;5.80;;
61477;SDS011;47345;52.334;10.392;2022-09-13T12:54:18;10.00;;;6.70;;
61477;SDS011;47345;52.334;10.392;2022-09-13T12:57:14;9.80;;;6.00;;
61477;SDS011;47345;52.334;10.392;2022-09-13T12:59:57;10.90;;;6.80;;
61477;SDS011;47345;52.334;10.392;2022-09-13T13:02:38;10.30;;;5.90;;
61477;SDS011;47345;52.334;10.392;2022-09-13T13:05:19;8.70;;;5.10;;
61477;SDS011;47345;52.334;10.392;2022-09-13T13:07:53;9.30;;;6.30;;
61477;SDS011;47345;52.334;10.392;2022-09-13T13:10:27;9.80;;;5.90;;
61477;SDS011;47345;52.334;10.392;2022-09-13T13:13:13;11.00;;;6.60;;
61477;SDS011;47345;52.334;10.392;2022-09-13T13:15:59;9.60;;;6.60;;
61477;SDS011;47345;52.334;10.392;2022-09-13T13:18:42;9.70;;;6.30;;
61477;SDS011;47345;52.334;10.392;2022-09-13T13:30:38;10.60;;;6.90;;
61477;SDS011;47345;52.334;10.392;2022-09-13T13:33:25;8.30;;;4.90;;
61477;SDS011;47345;52.334;10.392;2022-09-13T13:35:58;9.70;;;6.40;;
61477;SDS011;47345;52.334;10.392;2022-09-13T13:38:52;8.80;;;5.80;;
61477;SDS011;47345;52.334;10.392;2022-09-13T13:41:42;12.40;;;7.10;;
61477;SDS011;47345;52.334;10.392;2022-09-13T13:47:52;9.30;;;5.40;;
61477;SDS011;47345;52.334;10.392;2022-09-13T13:50:33;8.00;;;5.50;;
61477;SDS011;47345;52.334;10.392;2022-09-13T13:53:33;8.80;;;6.10;;
61477;SDS011;47345;52.334;10.392;2022-09-13T13:56:14;12.50;;;6.70;;
61477;SDS011;47345;52.334;10.392;2022-09-13T13:58:49;10.90;;;6.90;;
61477;SDS011;47345;52.334;10.392;2022-09-13T14:01:25;11.50;;;7.70;;
61477;SDS011;47345;52.334;10.392;2022-09-13T14:04:04;9.20;;;6.30;;
61477;SDS011;47345;52.334;10.392;2022-09-13T14:06:57;7.70;;;5.30;;
61477;SDS011;47345;52.334;10.392;2022-09-13T14:09:48;8.10;;;4.40;;
61477;SDS011;47345;52.334;10.392;2022-09-13T14:12:27;6.00;;;4.40;;
61477;SDS011;47345;52.334;10.392;2022-09-13T14:15:15;5.00;;;3.70;;
61477;SDS011;47345;52.334;10.392;2022-09-13T14:18:08;4.90;;;3.90;;
61477;SDS011;47345;52.334;10.392;2022-09-13T14:20:59;6.30;;;4.00;;
61477;SDS011;47345;52.334;10.392;2022-09-13T14:23:31;6.00;;;4.50;;
61477;SDS011;47345;52.334;10.392;2022-09-13T14:26:01;4.80;;;3.20;;
61477;SDS011;47345;52.334;10.392;2022-09-13T14:28:34;4.30;;;3.80;;
61477;SDS011;47345;52.334;10.392;2022-09-13T14:31:05;5.20;;;3.70;;
61477;SDS011;47345;52.334;10.392;2022-09-13T14:33:45;4.30;;;3.70;;
61477;SDS011;47345;52.334;10.392;2022-09-13T14:36:17;4.50;;;3.00;;
61477;SDS011;47345;52.334;10.392;2022-09-13T14:38:50;3.80;;;2.80;;
61477;SDS011;47345;52.334;10.392;2022-09-13T14:41:29;3.60;;;2.90;;
61477;SDS011;47345;52.334;10.392;2022-09-13T14:44:17;3.30;;;2.80;;
61477;SDS011;47345;52.334;10.392;2022-09-13T14:46:57;3.50;;;3.10;;
61477;SDS011;47345;52.334;10.392;2022-09-13T14:49:34;2.80;;;2.30;;
61477;SDS011;47345;52.334;10.392;2022-09-13T14:52:16;4.60;;;3.10;;
61477;SDS011;47345;52.334;10.392;2022-09-13T14:54:53;2.90;;;2.60;;
61477;SDS011;47345;52.334;10.392;2022-09-13T14:57:28;3.20;;;2.90;;
61477;SDS011;47345;52.334;10.392;2022-09-13T15:00:03;3.10;;;2.60;;
61477;SDS011;47345;52.334;10.392;2022-09-13T15:02:36;4.50;;;2.70;;
61477;SDS011;47345;52.334;10.392;2022-09-13T15:05:12;3.20;;;2.90;;
61477;SDS011;47345;52.334;10.392;2022-09-13T15:07:44;2.70;;;2.50;;
61477;SDS011;47345;52.334;10.392;2022-09-13T15:10:22;2.30;;;2.10;;
61477;SDS011;47345;52.334;10.392;2022-09-13T15:13:01;2.40;;;2.20;;
61477;SDS011;47345;52.334;10.392;2022-09-13T15:15:37;2.00;;;1.80;;
61477;SDS011;47345;52.334;10.392;2022-09-13T15:18:22;1.80;;;1.70;;
61477;SDS011;47345;52.334;10.392;2022-09-13T15:20:54;2.60;;;2.40;;
61477;SDS011;47345;52.334;10.392;2022-09-13T15:23:26;2.10;;;1.90;;
61477;SDS011;47345;52.334;10.392;2022-09-13T15:26:00;3.80;;;1.90;;
61477;SDS011;47345;52.334;10.392;2022-09-13T15:28:44;2.10;;;2.00;;
61477;SDS011;47345;52.334;10.392;2022-09-13T15:31:20;2.50;;;2.30;;
61477;SDS011;47345;52.334;10.392;2022-09-13T15:36:40;2.50;;;2.30;;
61477;SDS011;47345;52.334;10.392;2022-09-13T15:39:14;2.40;;;2.20;;
61477;SDS011;47345;52.334;10.392;2022-09-13T15:41:51;2.40;;;2.20;;
61477;SDS011;47345;52.334;10.392;2022-09-13T15:44:23;2.60;;;2.20;;
61477;SDS011;47345;52.334;10.392;2022-09-13T15:46:55;2.70;;;2.20;;
61477;SDS011;47345;52.334;10.392;2022-09-13T15:49:29;1.70;;;1.50;;
61477;SDS011;47345;52.334;10.392;2022-09-13T15:52:00;1.90;;;1.50;;